sensor_id;sensor_type;location;lat;lon;timestamp;P1;durP1;ratioP1;P2;durP2;ratioP2
49458;SDS011;35354;51.296;16.924;2023-05-29T00:01:20;6.47;;;3.47;;
49458;SDS011;35354;51.296;16.924;2023-05-29T00:03:46;8.48;;;3.55;;
49458;SDS011;35354;51.296;16.924;2023-05-29T00:06:11;5.43;;;3.03;;
49458;SDS011;35354;51.296;16.924;2023-05-29T00:08:38;7.80;;;3.85;;
49458;SDS011;35354;51.296;16.924;2023-05-29T00:11:03;6.50;;;3.45;;
49458;SDS011;35354;51.296;16.924;2023-05-29T00:13:29;6.57;;;3.00;;
49458;SDS011;35354;51.296;16.924;2023-05-29T00:15:54;4.65;;;3.40;;
49458;SDS011;35354;51.296;16.924;2023-05-29T00:18:20;4.38;;;2.83;;
49458;SDS011;35354;51.296;16.924;2023-05-29T00:20:45;6.15;;;2.78;;
49458;SDS011;35354;51.296;16.924;2023-05-29T00:23:11;5.50;;;3.95;;
49458;SDS011;35354;51.296;16.924;2023-05-29T00:25:36;5.10;;;3.17;;
49458;SDS011;35354;51.296;16.924;2023-05-29T00:28:02;5.38;;;3.40;;
49458;SDS011;35354;51.296;16.924;2023-05-29T00:30:27;4.95;;;2.97;;
49458;SDS011;35354;51.296;16.924;2023-05-29T00:32:53;4.85;;;2.78;;
49458;SDS011;35354;51.296;16.924;2023-05-29T00:35:19;5.57;;;3.05;;
49458;SDS011;35354;51.296;16.924;2023-05-29T00:37:45;3.85;;;3.03;;
49458;SDS011;35354;51.296;16.924;2023-05-29T00:40:10;7.40;;;2.97;;
49458;SDS011;35354;51.296;16.924;2023-05-29T00:42:36;4.53;;;2.83;;
49458;SDS011;35354;51.296;16.924;2023-05-29T00:45:02;4.57;;;2.80;;
49458;SDS011;35354;51.296;16.924;2023-05-29T00:47:28;6.07;;;2.95;;
49458;SDS011;35354;51.296;16.924;2023-05-29T00:49:55;3.25;;;2.50;;
49458;SDS011;35354;51.296;16.924;2023-05-29T00:52:21;7.72;;;3.10;;
49458;SDS011;35354;51.296;16.924;2023-05-29T00:54:49;5.35;;;2.60;;
49458;SDS011;35354;51.296;16.924;2023-05-29T00:57:15;4.28;;;2.90;;
49458;SDS011;35354;51.296;16.924;2023-05-29T00:59:42;6.05;;;3.00;;
49458;SDS011;35354;51.296;16.924;2023-05-29T01:02:08;4.03;;;2.60;;
49458;SDS011;35354;51.296;16.924;2023-05-29T01:04:34;4.65;;;3.25;;
49458;SDS011;35354;51.296;16.924;2023-05-29T01:07:01;4.95;;;2.80;;
49458;SDS011;35354;51.296;16.924;2023-05-29T01:09:30;6.40;;;2.70;;
49458;SDS011;35354;51.296;16.924;2023-05-29T01:12:13;5.22;;;2.67;;
49458;SDS011;35354;51.296;16.924;2023-05-29T01:15:04;3.33;;;2.90;;
49458;SDS011;35354;51.296;16.924;2023-05-29T01:28:25;4.50;;;2.88;;
49458;SDS011;35354;51.296;16.924;2023-05-29T01:30:55;2.85;;;2.53;;
49458;SDS011;35354;51.296;16.924;2023-05-29T01:33:22;6.40;;;2.78;;
49458;SDS011;35354;51.296;16.924;2023-05-29T01:35:47;4.43;;;2.55;;
49458;SDS011;35354;51.296;16.924;2023-05-29T01:38:12;4.80;;;2.95;;
49458;SDS011;35354;51.296;16.924;2023-05-29T01:40:38;7.43;;;3.10;;
49458;SDS011;35354;51.296;16.924;2023-05-29T01:43:03;5.00;;;2.80;;
49458;SDS011;35354;51.296;16.924;2023-05-29T01:45:29;5.55;;;2.88;;
49458;SDS011;35354;51.296;16.924;2023-05-29T01:47:55;4.45;;;2.72;;
49458;SDS011;35354;51.296;16.924;2023-05-29T01:50:21;3.67;;;2.63;;
49458;SDS011;35354;51.296;16.924;2023-05-29T01:52:49;5.82;;;3.00;;
49458;SDS011;35354;51.296;16.924;2023-05-29T01:55:14;4.15;;;2.80;;
49458;SDS011;35354;51.296;16.924;2023-05-29T01:57:40;4.30;;;2.80;;
49458;SDS011;35354;51.296;16.924;2023-05-29T02:00:06;4.75;;;3.00;;
49458;SDS011;35354;51.296;16.924;2023-05-29T02:02:40;5.68;;;2.72;;
49458;SDS011;35354;51.296;16.924;2023-05-29T02:05:06;4.20;;;2.90;;
49458;SDS011;35354;51.296;16.924;2023-05-29T02:07:33;6.43;;;2.85;;
49458;SDS011;35354;51.296;16.924;2023-05-29T02:09:59;6.65;;;2.90;;
49458;SDS011;35354;51.296;16.924;2023-05-29T02:12:25;6.63;;;3.28;;
49458;SDS011;35354;51.296;16.924;2023-05-29T02:14:50;3.83;;;2.63;;
49458;SDS011;35354;51.296;16.924;2023-05-29T02:17:15;6.57;;;2.38;;
49458;SDS011;35354;51.296;16.924;2023-05-29T02:19:41;5.53;;;2.92;;
49458;SDS011;35354;51.296;16.924;2023-05-29T02:22:07;4.40;;;2.97;;
49458;SDS011;35354;51.296;16.924;2023-05-29T02:24:32;4.93;;;2.95;;
49458;SDS011;35354;51.296;16.924;2023-05-29T02:26:58;6.82;;;3.63;;
49458;SDS011;35354;51.296;16.924;2023-05-29T02:29:23;5.10;;;3.40;;
49458;SDS011;35354;51.296;16.924;2023-05-29T02:31:48;6.93;;;3.45;;
49458;SDS011;35354;51.296;16.924;2023-05-29T02:34:14;5.75;;;3.17;;
49458;SDS011;35354;51.296;16.924;2023-05-29T02:36:39;5.47;;;3.10;;
49458;SDS011;35354;51.296;16.924;2023-05-29T02:39:05;10.10;;;3.53;;
49458;SDS011;35354;51.296;16.924;2023-05-29T02:41:30;3.80;;;2.85;;
49458;SDS011;35354;51.296;16.924;2023-05-29T02:43:56;7.50;;;3.35;;
49458;SDS011;35354;51.296;16.924;2023-05-29T02:46:21;4.10;;;2.70;;
49458;SDS011;35354;51.296;16.924;2023-05-29T02:48:47;5.88;;;2.92;;
49458;SDS011;35354;51.296;16.924;2023-05-29T02:51:13;4.28;;;3.17;;
49458;SDS011;35354;51.296;16.924;2023-05-29T02:53:38;4.55;;;3.05;;
49458;SDS011;35354;51.296;16.924;2023-05-29T02:56:05;4.47;;;2.83;;
49458;SDS011;35354;51.296;16.924;2023-05-29T02:58:32;6.78;;;3.10;;
49458;SDS011;35354;51.296;16.924;2023-05-29T03:00:58;6.13;;;3.42;;
49458;SDS011;35354;51.296;16.924;2023-05-29T03:03:23;6.65;;;3.53;;
49458;SDS011;35354;51.296;16.924;2023-05-29T03:05:48;7.45;;;3.38;;
49458;SDS011;35354;51.296;16.924;2023-05-29T03:08:14;8.27;;;3.97;;
49458;SDS011;35354;51.296;16.924;2023-05-29T03:10:39;6.10;;;3.00;;
49458;SDS011;35354;51.296;16.924;2023-05-29T03:13:05;4.45;;;3.15;;
49458;SDS011;35354;51.296;16.924;2023-05-29T03:15:31;6.60;;;3.47;;
49458;SDS011;35354;51.296;16.924;2023-05-29T03:17:56;5.82;;;3.40;;
49458;SDS011;35354;51.296;16.924;2023-05-29T03:20:22;5.63;;;3.22;;
49458;SDS011;35354;51.296;16.924;2023-05-29T03:22:48;8.15;;;3.30;;
49458;SDS011;35354;51.296;16.924;2023-05-29T03:25:13;6.78;;;3.10;;
49458;SDS011;35354;51.296;16.924;2023-05-29T03:27:40;5.65;;;3.28;;
49458;SDS011;35354;51.296;16.924;2023-05-29T03:30:06;9.00;;;3.70;;
49458;SDS011;35354;51.296;16.924;2023-05-29T03:32:32;8.43;;;4.00;;
49458;SDS011;35354;51.296;16.924;2023-05-29T03:34:57;6.75;;;3.70;;
49458;SDS011;35354;51.296;16.924;2023-05-29T03:37:22;7.05;;;3.35;;
49458;SDS011;35354;51.296;16.924;2023-05-29T03:39:48;6.47;;;3.60;;
49458;SDS011;35354;51.296;16.924;2023-05-29T03:42:13;7.32;;;3.83;;
49458;SDS011;35354;51.296;16.924;2023-05-29T03:44:38;5.63;;;3.70;;
49458;SDS011;35354;51.296;16.924;2023-05-29T03:47:04;7.07;;;4.10;;
49458;SDS011;35354;51.296;16.924;2023-05-29T03:49:29;6.93;;;3.30;;
49458;SDS011;35354;51.296;16.924;2023-05-29T03:51:55;6.55;;;3.88;;
49458;SDS011;35354;51.296;16.924;2023-05-29T03:54:20;9.35;;;4.10;;
49458;SDS011;35354;51.296;16.924;2023-05-29T03:56:45;8.90;;;4.07;;
49458;SDS011;35354;51.296;16.924;2023-05-29T03:59:11;6.68;;;3.83;;
49458;SDS011;35354;51.296;16.924;2023-05-29T04:01:36;8.90;;;4.22;;
49458;SDS011;35354;51.296;16.924;2023-05-29T04:04:01;9.35;;;4.32;;
49458;SDS011;35354;51.296;16.924;2023-05-29T04:06:27;7.30;;;3.70;;
49458;SDS011;35354;51.296;16.924;2023-05-29T04:08:52;7.97;;;4.07;;
49458;SDS011;35354;51.296;16.924;2023-05-29T04:11:17;9.00;;;4.10;;
49458;SDS011;35354;51.296;16.924;2023-05-29T04:13:46;8.85;;;4.53;;
49458;SDS011;35354;51.296;16.924;2023-05-29T04:16:13;7.50;;;3.75;;
49458;SDS011;35354;51.296;16.924;2023-05-29T04:18:40;8.63;;;4.13;;
49458;SDS011;35354;51.296;16.924;2023-05-29T04:21:06;12.05;;;4.13;;
49458;SDS011;35354;51.296;16.924;2023-05-29T04:23:31;8.13;;;4.70;;
49458;SDS011;35354;51.296;16.924;2023-05-29T04:25:56;6.20;;;4.15;;
49458;SDS011;35354;51.296;16.924;2023-05-29T04:28:22;7.50;;;4.10;;
49458;SDS011;35354;51.296;16.924;2023-05-29T04:30:48;9.90;;;4.75;;
49458;SDS011;35354;51.296;16.924;2023-05-29T04:33:14;7.07;;;4.78;;
49458;SDS011;35354;51.296;16.924;2023-05-29T04:35:40;7.65;;;4.97;;
49458;SDS011;35354;51.296;16.924;2023-05-29T04:38:08;7.80;;;5.28;;
49458;SDS011;35354;51.296;16.924;2023-05-29T04:40:34;8.95;;;5.90;;
49458;SDS011;35354;51.296;16.924;2023-05-29T04:43:01;8.40;;;5.40;;
49458;SDS011;35354;51.296;16.924;2023-05-29T04:45:27;11.52;;;4.90;;
49458;SDS011;35354;51.296;16.924;2023-05-29T04:47:53;8.35;;;5.20;;
49458;SDS011;35354;51.296;16.924;2023-05-29T04:50:20;8.45;;;5.65;;
49458;SDS011;35354;51.296;16.924;2023-05-29T04:52:45;10.52;;;5.43;;
49458;SDS011;35354;51.296;16.924;2023-05-29T04:55:11;12.63;;;5.13;;
49458;SDS011;35354;51.296;16.924;2023-05-29T04:57:36;8.57;;;5.55;;
49458;SDS011;35354;51.296;16.924;2023-05-29T05:00:02;11.48;;;5.65;;
49458;SDS011;35354;51.296;16.924;2023-05-29T05:02:38;8.95;;;5.70;;
49458;SDS011;35354;51.296;16.924;2023-05-29T05:05:04;9.13;;;5.45;;
49458;SDS011;35354;51.296;16.924;2023-05-29T05:07:30;7.75;;;5.85;;
49458;SDS011;35354;51.296;16.924;2023-05-29T05:09:55;6.15;;;4.50;;
49458;SDS011;35354;51.296;16.924;2023-05-29T05:12:20;8.27;;;5.22;;
49458;SDS011;35354;51.296;16.924;2023-05-29T05:14:46;8.07;;;5.40;;
49458;SDS011;35354;51.296;16.924;2023-05-29T05:17:11;10.57;;;4.95;;
49458;SDS011;35354;51.296;16.924;2023-05-29T05:19:37;8.05;;;5.60;;
49458;SDS011;35354;51.296;16.924;2023-05-29T05:22:02;10.30;;;5.32;;
49458;SDS011;35354;51.296;16.924;2023-05-29T05:24:27;8.75;;;6.15;;
49458;SDS011;35354;51.296;16.924;2023-05-29T05:26:53;7.03;;;5.68;;
49458;SDS011;35354;51.296;16.924;2023-05-29T05:29:18;9.68;;;6.28;;
49458;SDS011;35354;51.296;16.924;2023-05-29T05:31:44;7.93;;;5.90;;
49458;SDS011;35354;51.296;16.924;2023-05-29T05:34:10;9.75;;;5.75;;
49458;SDS011;35354;51.296;16.924;2023-05-29T05:36:35;8.23;;;5.38;;
49458;SDS011;35354;51.296;16.924;2023-05-29T05:39:01;7.43;;;5.65;;
49458;SDS011;35354;51.296;16.924;2023-05-29T05:41:27;9.98;;;5.65;;
49458;SDS011;35354;51.296;16.924;2023-05-29T05:43:52;7.75;;;5.28;;
49458;SDS011;35354;51.296;16.924;2023-05-29T05:46:17;10.52;;;6.28;;
49458;SDS011;35354;51.296;16.924;2023-05-29T05:48:43;7.82;;;5.20;;
49458;SDS011;35354;51.296;16.924;2023-05-29T05:51:08;11.45;;;5.38;;
49458;SDS011;35354;51.296;16.924;2023-05-29T05:53:34;8.60;;;4.95;;
49458;SDS011;35354;51.296;16.924;2023-05-29T05:55:59;8.18;;;5.90;;
49458;SDS011;35354;51.296;16.924;2023-05-29T05:58:25;8.68;;;5.15;;
49458;SDS011;35354;51.296;16.924;2023-05-29T06:00:50;5.68;;;4.38;;
49458;SDS011;35354;51.296;16.924;2023-05-29T06:03:17;11.20;;;10.05;;
49458;SDS011;35354;51.296;16.924;2023-05-29T06:05:42;7.47;;;5.40;;
49458;SDS011;35354;51.296;16.924;2023-05-29T06:08:08;8.20;;;4.05;;
49458;SDS011;35354;51.296;16.924;2023-05-29T06:10:33;5.53;;;4.55;;
49458;SDS011;35354;51.296;16.924;2023-05-29T06:12:59;7.32;;;4.15;;
49458;SDS011;35354;51.296;16.924;2023-05-29T06:15:24;10.00;;;4.63;;
49458;SDS011;35354;51.296;16.924;2023-05-29T06:17:49;5.55;;;4.30;;
49458;SDS011;35354;51.296;16.924;2023-05-29T06:20:16;6.50;;;4.22;;
49458;SDS011;35354;51.296;16.924;2023-05-29T06:22:42;6.38;;;4.13;;
49458;SDS011;35354;51.296;16.924;2023-05-29T06:25:07;7.50;;;4.95;;
49458;SDS011;35354;51.296;16.924;2023-05-29T06:29:59;5.85;;;4.10;;
49458;SDS011;35354;51.296;16.924;2023-05-29T06:32:24;5.82;;;4.07;;
49458;SDS011;35354;51.296;16.924;2023-05-29T06:34:50;5.72;;;3.70;;
49458;SDS011;35354;51.296;16.924;2023-05-29T06:37:16;5.72;;;4.40;;
49458;SDS011;35354;51.296;16.924;2023-05-29T06:39:44;4.43;;;3.58;;
49458;SDS011;35354;51.296;16.924;2023-05-29T06:42:09;8.48;;;3.95;;
49458;SDS011;35354;51.296;16.924;2023-05-29T06:44:35;4.65;;;3.53;;
49458;SDS011;35354;51.296;16.924;2023-05-29T06:47:00;6.35;;;3.80;;
49458;SDS011;35354;51.296;16.924;2023-05-29T06:49:25;4.32;;;3.17;;
49458;SDS011;35354;51.296;16.924;2023-05-29T06:51:51;5.63;;;3.63;;
49458;SDS011;35354;51.296;16.924;2023-05-29T06:54:16;7.28;;;3.70;;
49458;SDS011;35354;51.296;16.924;2023-05-29T06:56:42;4.78;;;3.50;;
49458;SDS011;35354;51.296;16.924;2023-05-29T06:59:07;5.30;;;3.28;;
49458;SDS011;35354;51.296;16.924;2023-05-29T07:01:32;5.07;;;3.38;;
49458;SDS011;35354;51.296;16.924;2023-05-29T07:03:58;4.85;;;3.40;;
49458;SDS011;35354;51.296;16.924;2023-05-29T07:06:23;4.38;;;3.30;;
49458;SDS011;35354;51.296;16.924;2023-05-29T07:08:48;5.38;;;2.88;;
49458;SDS011;35354;51.296;16.924;2023-05-29T07:11:14;3.80;;;3.15;;
49458;SDS011;35354;51.296;16.924;2023-05-29T07:13:39;4.47;;;3.20;;
49458;SDS011;35354;51.296;16.924;2023-05-29T07:16:05;3.65;;;2.90;;
49458;SDS011;35354;51.296;16.924;2023-05-29T07:18:31;3.22;;;2.40;;
49458;SDS011;35354;51.296;16.924;2023-05-29T07:20:56;5.30;;;3.00;;
49458;SDS011;35354;51.296;16.924;2023-05-29T07:23:22;5.95;;;2.80;;
49458;SDS011;35354;51.296;16.924;2023-05-29T07:25:47;10.95;;;2.97;;
49458;SDS011;35354;51.296;16.924;2023-05-29T07:28:12;5.78;;;2.88;;
49458;SDS011;35354;51.296;16.924;2023-05-29T07:30:38;3.83;;;2.83;;
49458;SDS011;35354;51.296;16.924;2023-05-29T07:33:03;4.32;;;2.60;;
49458;SDS011;35354;51.296;16.924;2023-05-29T07:35:29;3.33;;;2.83;;
49458;SDS011;35354;51.296;16.924;2023-05-29T07:37:57;4.43;;;3.28;;
49458;SDS011;35354;51.296;16.924;2023-05-29T07:40:23;3.90;;;2.78;;
49458;SDS011;35354;51.296;16.924;2023-05-29T07:42:49;5.38;;;2.63;;
49458;SDS011;35354;51.296;16.924;2023-05-29T07:45:14;3.75;;;3.10;;
49458;SDS011;35354;51.296;16.924;2023-05-29T07:47:40;3.78;;;2.88;;
49458;SDS011;35354;51.296;16.924;2023-05-29T07:50:05;4.40;;;2.80;;
49458;SDS011;35354;51.296;16.924;2023-05-29T07:52:31;3.13;;;2.63;;
49458;SDS011;35354;51.296;16.924;2023-05-29T07:54:57;3.05;;;2.75;;
49458;SDS011;35354;51.296;16.924;2023-05-29T07:57:22;3.03;;;2.80;;
49458;SDS011;35354;51.296;16.924;2023-05-29T07:59:48;6.97;;;3.00;;
49458;SDS011;35354;51.296;16.924;2023-05-29T08:02:17;3.30;;;3.00;;
49458;SDS011;35354;51.296;16.924;2023-05-29T08:04:42;4.22;;;3.15;;
49458;SDS011;35354;51.296;16.924;2023-05-29T08:07:07;13.45;;;2.83;;
49458;SDS011;35354;51.296;16.924;2023-05-29T08:09:33;3.33;;;3.03;;
49458;SDS011;35354;51.296;16.924;2023-05-29T08:12:00;4.78;;;2.92;;
49458;SDS011;35354;51.296;16.924;2023-05-29T08:14:26;3.67;;;2.53;;
49458;SDS011;35354;51.296;16.924;2023-05-29T08:16:51;4.32;;;2.88;;
49458;SDS011;35354;51.296;16.924;2023-05-29T08:19:17;3.88;;;2.67;;
49458;SDS011;35354;51.296;16.924;2023-05-29T08:21:42;7.60;;;3.00;;
49458;SDS011;35354;51.296;16.924;2023-05-29T08:24:07;5.85;;;2.95;;
49458;SDS011;35354;51.296;16.924;2023-05-29T08:26:33;3.35;;;3.05;;
49458;SDS011;35354;51.296;16.924;2023-05-29T08:29:00;5.22;;;2.78;;
49458;SDS011;35354;51.296;16.924;2023-05-29T08:31:25;3.97;;;2.97;;
49458;SDS011;35354;51.296;16.924;2023-05-29T08:33:52;5.30;;;3.35;;
49458;SDS011;35354;51.296;16.924;2023-05-29T08:36:18;3.33;;;2.95;;
49458;SDS011;35354;51.296;16.924;2023-05-29T08:38:46;4.75;;;3.60;;
49458;SDS011;35354;51.296;16.924;2023-05-29T08:41:13;7.57;;;3.42;;
49458;SDS011;35354;51.296;16.924;2023-05-29T08:43:45;3.30;;;3.00;;
49458;SDS011;35354;51.296;16.924;2023-05-29T08:46:12;5.22;;;2.95;;
49458;SDS011;35354;51.296;16.924;2023-05-29T08:48:40;7.18;;;3.10;;
49458;SDS011;35354;51.296;16.924;2023-05-29T08:51:08;8.15;;;2.88;;
49458;SDS011;35354;51.296;16.924;2023-05-29T08:53:35;4.00;;;2.63;;
49458;SDS011;35354;51.296;16.924;2023-05-29T08:56:01;5.90;;;3.50;;
49458;SDS011;35354;51.296;16.924;2023-05-29T08:58:27;4.28;;;2.97;;
49458;SDS011;35354;51.296;16.924;2023-05-29T09:00:52;7.03;;;3.15;;
49458;SDS011;35354;51.296;16.924;2023-05-29T09:03:18;5.57;;;2.70;;
49458;SDS011;35354;51.296;16.924;2023-05-29T09:05:45;6.43;;;3.03;;
49458;SDS011;35354;51.296;16.924;2023-05-29T09:08:11;5.03;;;2.53;;
49458;SDS011;35354;51.296;16.924;2023-05-29T09:10:38;7.57;;;2.85;;
49458;SDS011;35354;51.296;16.924;2023-05-29T09:13:05;5.15;;;2.97;;
49458;SDS011;35354;51.296;16.924;2023-05-29T09:15:30;7.40;;;3.42;;
49458;SDS011;35354;51.296;16.924;2023-05-29T09:17:56;5.78;;;2.67;;
49458;SDS011;35354;51.296;16.924;2023-05-29T09:20:23;3.22;;;2.88;;
49458;SDS011;35354;51.296;16.924;2023-05-29T09:25:26;3.25;;;2.50;;
49458;SDS011;35354;51.296;16.924;2023-05-29T09:27:59;5.75;;;3.50;;
49458;SDS011;35354;51.296;16.924;2023-05-29T09:30:40;4.32;;;2.83;;
49458;SDS011;35354;51.296;16.924;2023-05-29T09:33:08;5.03;;;3.20;;
49458;SDS011;35354;51.296;16.924;2023-05-29T09:35:40;5.25;;;3.10;;
49458;SDS011;35354;51.296;16.924;2023-05-29T09:38:06;9.05;;;3.30;;
49458;SDS011;35354;51.296;16.924;2023-05-29T09:40:33;4.20;;;3.40;;
49458;SDS011;35354;51.296;16.924;2023-05-29T09:45:29;4.28;;;3.13;;
49458;SDS011;35354;51.296;16.924;2023-05-29T09:47:55;5.30;;;3.35;;
49458;SDS011;35354;51.296;16.924;2023-05-29T09:50:21;4.32;;;3.20;;
49458;SDS011;35354;51.296;16.924;2023-05-29T09:52:51;4.72;;;3.03;;
49458;SDS011;35354;51.296;16.924;2023-05-29T09:55:21;6.57;;;3.80;;
49458;SDS011;35354;51.296;16.924;2023-05-29T09:57:48;8.32;;;3.58;;
49458;SDS011;35354;51.296;16.924;2023-05-29T10:00:15;5.28;;;2.95;;
49458;SDS011;35354;51.296;16.924;2023-05-29T10:02:41;6.32;;;3.75;;
49458;SDS011;35354;51.296;16.924;2023-05-29T10:05:06;5.55;;;3.92;;
49458;SDS011;35354;51.296;16.924;2023-05-29T10:07:37;6.07;;;4.10;;
49458;SDS011;35354;51.296;16.924;2023-05-29T10:10:06;6.65;;;3.17;;
49458;SDS011;35354;51.296;16.924;2023-05-29T10:12:37;7.07;;;3.63;;
49458;SDS011;35354;51.296;16.924;2023-05-29T10:15:11;5.60;;;3.67;;
49458;SDS011;35354;51.296;16.924;2023-05-29T10:17:38;5.15;;;3.58;;
49458;SDS011;35354;51.296;16.924;2023-05-29T10:20:09;4.80;;;3.47;;
49458;SDS011;35354;51.296;16.924;2023-05-29T10:22:39;8.30;;;3.53;;
49458;SDS011;35354;51.296;16.924;2023-05-29T10:25:09;5.35;;;3.22;;
49458;SDS011;35354;51.296;16.924;2023-05-29T10:27:37;5.90;;;3.90;;
49458;SDS011;35354;51.296;16.924;2023-05-29T10:30:05;5.68;;;3.65;;
49458;SDS011;35354;51.296;16.924;2023-05-29T10:35:20;5.72;;;3.35;;
49458;SDS011;35354;51.296;16.924;2023-05-29T10:40:33;11.50;;;4.22;;
49458;SDS011;35354;51.296;16.924;2023-05-29T10:42:58;5.22;;;3.10;;
49458;SDS011;35354;51.296;16.924;2023-05-29T10:53:27;5.57;;;3.00;;
49458;SDS011;35354;51.296;16.924;2023-05-29T10:55:56;5.35;;;2.92;;
49458;SDS011;35354;51.296;16.924;2023-05-29T10:58:24;4.97;;;3.22;;
49458;SDS011;35354;51.296;16.924;2023-05-29T11:00:50;3.80;;;3.40;;
49458;SDS011;35354;51.296;16.924;2023-05-29T11:03:22;4.55;;;3.25;;
49458;SDS011;35354;51.296;16.924;2023-05-29T11:06:01;4.78;;;3.38;;
49458;SDS011;35354;51.296;16.924;2023-05-29T11:08:33;5.18;;;3.22;;
49458;SDS011;35354;51.296;16.924;2023-05-29T11:11:00;7.07;;;3.20;;
49458;SDS011;35354;51.296;16.924;2023-05-29T11:13:35;4.10;;;2.90;;
49458;SDS011;35354;51.296;16.924;2023-05-29T11:16:05;6.25;;;3.67;;
49458;SDS011;35354;51.296;16.924;2023-05-29T11:18:41;4.65;;;3.00;;
49458;SDS011;35354;51.296;16.924;2023-05-29T11:23:57;5.25;;;3.15;;
49458;SDS011;35354;51.296;16.924;2023-05-29T11:26:26;5.18;;;3.05;;
49458;SDS011;35354;51.296;16.924;2023-05-29T11:28:52;6.05;;;3.22;;
49458;SDS011;35354;51.296;16.924;2023-05-29T11:31:17;4.15;;;3.13;;
49458;SDS011;35354;51.296;16.924;2023-05-29T11:33:48;5.10;;;3.15;;
49458;SDS011;35354;51.296;16.924;2023-05-29T11:36:16;5.78;;;3.28;;
49458;SDS011;35354;51.296;16.924;2023-05-29T11:38:46;6.47;;;3.83;;
49458;SDS011;35354;51.296;16.924;2023-05-29T11:41:11;3.83;;;3.20;;
49458;SDS011;35354;51.296;16.924;2023-05-29T11:43:37;6.88;;;3.50;;
49458;SDS011;35354;51.296;16.924;2023-05-29T11:46:06;5.15;;;3.45;;
49458;SDS011;35354;51.296;16.924;2023-05-29T11:48:47;4.40;;;3.35;;
49458;SDS011;35354;51.296;16.924;2023-05-29T11:51:13;4.05;;;3.25;;
49458;SDS011;35354;51.296;16.924;2023-05-29T11:53:42;3.58;;;2.85;;
49458;SDS011;35354;51.296;16.924;2023-05-29T11:56:08;5.95;;;3.58;;
49458;SDS011;35354;51.296;16.924;2023-05-29T11:58:39;7.20;;;3.15;;
49458;SDS011;35354;51.296;16.924;2023-05-29T12:01:05;5.50;;;3.65;;
49458;SDS011;35354;51.296;16.924;2023-05-29T12:03:39;10.95;;;4.30;;
49458;SDS011;35354;51.296;16.924;2023-05-29T12:06:05;4.38;;;3.22;;
49458;SDS011;35354;51.296;16.924;2023-05-29T12:08:32;6.93;;;3.25;;
49458;SDS011;35354;51.296;16.924;2023-05-29T12:10:58;7.63;;;3.47;;
49458;SDS011;35354;51.296;16.924;2023-05-29T12:13:23;4.15;;;3.58;;
49458;SDS011;35354;51.296;16.924;2023-05-29T12:15:49;6.40;;;3.25;;
49458;SDS011;35354;51.296;16.924;2023-05-29T12:18:18;6.03;;;3.20;;
49458;SDS011;35354;51.296;16.924;2023-05-29T12:20:43;6.70;;;3.42;;
49458;SDS011;35354;51.296;16.924;2023-05-29T12:23:09;4.15;;;3.63;;
49458;SDS011;35354;51.296;16.924;2023-05-29T12:25:34;5.35;;;3.30;;
49458;SDS011;35354;51.296;16.924;2023-05-29T12:28:03;3.95;;;3.08;;
49458;SDS011;35354;51.296;16.924;2023-05-29T12:30:30;4.75;;;3.17;;
49458;SDS011;35354;51.296;16.924;2023-05-29T12:32:55;6.40;;;3.40;;
49458;SDS011;35354;51.296;16.924;2023-05-29T12:35:25;4.43;;;2.90;;
49458;SDS011;35354;51.296;16.924;2023-05-29T12:37:53;5.38;;;2.90;;
49458;SDS011;35354;51.296;16.924;2023-05-29T12:42:49;6.85;;;3.33;;
49458;SDS011;35354;51.296;16.924;2023-05-29T12:45:31;4.10;;;3.70;;
49458;SDS011;35354;51.296;16.924;2023-05-29T12:48:04;4.45;;;3.10;;
49458;SDS011;35354;51.296;16.924;2023-05-29T12:50:32;6.00;;;3.38;;
49458;SDS011;35354;51.296;16.924;2023-05-29T12:53:07;3.75;;;3.20;;
49458;SDS011;35354;51.296;16.924;2023-05-29T12:55:34;5.50;;;3.50;;
49458;SDS011;35354;51.296;16.924;2023-05-29T12:58:04;5.07;;;3.08;;
49458;SDS011;35354;51.296;16.924;2023-05-29T13:00:31;8.75;;;4.18;;
49458;SDS011;35354;51.296;16.924;2023-05-29T13:02:58;5.50;;;3.72;;
49458;SDS011;35354;51.296;16.924;2023-05-29T13:05:24;7.68;;;3.25;;
49458;SDS011;35354;51.296;16.924;2023-05-29T13:07:49;8.00;;;4.30;;
49458;SDS011;35354;51.296;16.924;2023-05-29T13:10:15;4.63;;;4.05;;
49458;SDS011;35354;51.296;16.924;2023-05-29T13:12:45;4.47;;;3.72;;
49458;SDS011;35354;51.296;16.924;2023-05-29T13:15:11;4.80;;;3.90;;
49458;SDS011;35354;51.296;16.924;2023-05-29T13:17:38;4.13;;;3.60;;
49458;SDS011;35354;51.296;16.924;2023-05-29T13:20:06;9.23;;;4.22;;
49458;SDS011;35354;51.296;16.924;2023-05-29T13:22:36;6.57;;;3.97;;
49458;SDS011;35354;51.296;16.924;2023-05-29T13:25:01;6.63;;;3.67;;
49458;SDS011;35354;51.296;16.924;2023-05-29T13:27:27;5.50;;;3.30;;
49458;SDS011;35354;51.296;16.924;2023-05-29T13:29:53;6.70;;;4.13;;
49458;SDS011;35354;51.296;16.924;2023-05-29T13:32:19;4.25;;;3.75;;
49458;SDS011;35354;51.296;16.924;2023-05-29T13:34:44;6.95;;;3.47;;
49458;SDS011;35354;51.296;16.924;2023-05-29T13:37:10;4.35;;;3.53;;
49458;SDS011;35354;51.296;16.924;2023-05-29T13:39:35;4.85;;;3.55;;
49458;SDS011;35354;51.296;16.924;2023-05-29T13:42:01;6.63;;;3.70;;
49458;SDS011;35354;51.296;16.924;2023-05-29T13:44:26;7.03;;;4.45;;
49458;SDS011;35354;51.296;16.924;2023-05-29T13:46:52;8.73;;;4.43;;
49458;SDS011;35354;51.296;16.924;2023-05-29T13:49:17;6.60;;;4.32;;
49458;SDS011;35354;51.296;16.924;2023-05-29T13:51:42;5.22;;;4.15;;
49458;SDS011;35354;51.296;16.924;2023-05-29T13:54:10;6.10;;;4.18;;
49458;SDS011;35354;51.296;16.924;2023-05-29T13:56:35;7.50;;;4.22;;
49458;SDS011;35354;51.296;16.924;2023-05-29T13:59:00;5.47;;;3.53;;
49458;SDS011;35354;51.296;16.924;2023-05-29T14:01:29;6.93;;;4.32;;
49458;SDS011;35354;51.296;16.924;2023-05-29T14:03:55;10.20;;;4.53;;
49458;SDS011;35354;51.296;16.924;2023-05-29T14:06:21;7.10;;;3.95;;
49458;SDS011;35354;51.296;16.924;2023-05-29T14:08:46;5.15;;;3.58;;
49458;SDS011;35354;51.296;16.924;2023-05-29T14:11:11;6.63;;;3.70;;
49458;SDS011;35354;51.296;16.924;2023-05-29T14:13:37;6.65;;;4.13;;
49458;SDS011;35354;51.296;16.924;2023-05-29T14:16:02;9.77;;;4.00;;
49458;SDS011;35354;51.296;16.924;2023-05-29T14:18:27;5.90;;;3.80;;
49458;SDS011;35354;51.296;16.924;2023-05-29T14:20:52;8.55;;;4.63;;
49458;SDS011;35354;51.296;16.924;2023-05-29T14:23:18;5.68;;;3.63;;
49458;SDS011;35354;51.296;16.924;2023-05-29T14:25:43;7.20;;;3.63;;
49458;SDS011;35354;51.296;16.924;2023-05-29T14:28:09;4.35;;;3.67;;
49458;SDS011;35354;51.296;16.924;2023-05-29T14:30:38;5.47;;;4.28;;
49458;SDS011;35354;51.296;16.924;2023-05-29T14:33:03;4.82;;;4.05;;
49458;SDS011;35354;51.296;16.924;2023-05-29T14:35:29;5.90;;;4.05;;
49458;SDS011;35354;51.296;16.924;2023-05-29T14:37:55;7.60;;;4.10;;
49458;SDS011;35354;51.296;16.924;2023-05-29T14:40:20;9.95;;;4.65;;
49458;SDS011;35354;51.296;16.924;2023-05-29T14:42:46;6.68;;;3.97;;
49458;SDS011;35354;51.296;16.924;2023-05-29T14:45:11;7.38;;;4.40;;
49458;SDS011;35354;51.296;16.924;2023-05-29T14:47:36;7.97;;;4.22;;
49458;SDS011;35354;51.296;16.924;2023-05-29T14:50:02;6.15;;;4.03;;
49458;SDS011;35354;51.296;16.924;2023-05-29T14:52:27;11.07;;;4.43;;
49458;SDS011;35354;51.296;16.924;2023-05-29T14:54:53;7.38;;;4.03;;
49458;SDS011;35354;51.296;16.924;2023-05-29T14:57:18;5.10;;;4.63;;
49458;SDS011;35354;51.296;16.924;2023-05-29T14:59:43;5.85;;;4.35;;
49458;SDS011;35354;51.296;16.924;2023-05-29T15:02:09;7.82;;;4.53;;
49458;SDS011;35354;51.296;16.924;2023-05-29T15:04:34;6.43;;;4.70;;
49458;SDS011;35354;51.296;16.924;2023-05-29T15:07:00;6.10;;;4.72;;